createdAt,value
2019-01-28T00:00:10.234Z,67.29
2019-01-28T00:01:10.019Z,67.47
2019-01-28T00:02:10.046Z,67.29
2019-01-28T00:03:10.027Z,67.63
2019-01-28T00:04:10.050Z,67.47
2019-01-28T00:05:10.118Z,67.57
2019-01-28T00:06:10.116Z,67.67
2019-01-28T00:07:10.441Z,67.19
2019-01-28T00:08:10.229Z,67.29
2019-01-28T00:09:10.268Z,67.44
2019-01-28T00:10:10.283Z,67.57
2019-01-28T00:11:10.311Z,67.00
2019-01-28T00:12:10.291Z,67.19
2019-01-28T00:13:10.371Z,67.67
2019-01-28T00:14:10.670Z,67.57
2019-01-28T00:15:10.384Z,67.16
2019-01-28T00:16:10.471Z,67.09
2019-01-28T00:17:10.528Z,67.09
2019-01-28T00:18:10.471Z,67.57
2019-01-28T00:19:10.513Z,67.67
2019-01-28T00:20:10.540Z,67.29
2019-01-28T00:21:10.859Z,67.47
2019-01-28T00:22:10.656Z,67.19
2019-01-28T00:23:10.636Z,67.96
2019-01-28T00:24:10.697Z,67.96
2019-01-28T00:25:10.730Z,67.96
2019-01-28T00:26:10.760Z,67.25
2019-01-28T00:27:10.736Z,67.35
2019-01-28T00:28:11.079Z,67.47
2019-01-28T00:29:10.848Z,67.86
2019-01-28T00:30:10.879Z,67.67
2019-01-28T00:31:10.861Z,67.29
2019-01-28T00:32:10.888Z,67.29
2019-01-28T00:33:10.969Z,67.57
2019-01-28T00:34:10.961Z,67.25
2019-01-28T00:35:11.280Z,67.29
2019-01-28T00:36:11.005Z,67.54
2019-01-28T00:37:11.043Z,67.76
2019-01-28T00:38:11.119Z,68.15
2019-01-28T00:39:11.118Z,68.05
2019-01-28T00:40:11.130Z,67.92
2019-01-28T00:41:11.211Z,67.38
2019-01-28T00:42:11.484Z,67.63
2019-01-28T00:43:11.235Z,67.19
2019-01-28T00:44:11.246Z,67.29
2019-01-28T00:45:11.290Z,67.29
2019-01-28T00:46:11.305Z,67.35
2019-01-28T00:47:11.382Z,67.57
2019-01-28T00:48:11.366Z,67.63
2019-01-28T00:49:11.691Z,67.54
2019-01-28T00:50:11.422Z,67.63
2019-01-28T00:51:11.455Z,66.96
2019-01-28T00:52:11.540Z,67.06
2019-01-28T00:53:11.568Z,67.44
2019-01-28T00:54:11.554Z,67.54
2019-01-28T00:55:11.875Z,67.92
2019-01-28T00:56:11.601Z,67.73
2019-01-28T00:57:11.630Z,67.83
2019-01-28T00:58:11.712Z,67.73
2019-01-28T00:59:11.692Z,67.73
2019-01-28T01:00:11.770Z,68.02
2019-01-28T01:01:12.057Z,67.83
2019-01-28T01:02:11.784Z,67.92
2019-01-28T01:03:11.813Z,67.92
2019-01-28T01:04:11.843Z,68.02
2019-01-28T01:05:11.874Z,68.02
2019-01-28T01:06:11.899Z,68.21
2019-01-28T01:07:12.235Z,68.40
2019-01-28T01:08:11.960Z,67.57
2019-01-28T01:09:12.048Z,67.44
2019-01-28T01:10:12.019Z,67.63
2019-01-28T01:11:12.099Z,67.25
2019-01-28T01:12:12.084Z,67.29
2019-01-28T01:13:12.107Z,67.47
2019-01-28T01:14:12.190Z,67.54
2019-01-28T01:15:12.176Z,67.67
2019-01-28T01:16:12.195Z,67.25
2019-01-28T01:17:12.282Z,67.44
2019-01-28T01:18:12.271Z,67.25
2019-01-28T01:19:12.334Z,67.54
2019-01-28T01:20:12.632Z,67.25
2019-01-28T01:21:12.401Z,67.29
2019-01-28T01:22:12.374Z,67.19
2019-01-28T01:23:12.463Z,66.67
2019-01-28T01:24:12.475Z,66.67
2019-01-28T01:25:12.521Z,66.67
2019-01-28T01:26:12.552Z,66.96
2019-01-28T01:27:12.824Z,67.63
2019-01-28T01:28:12.611Z,67.63
2019-01-28T01:29:12.633Z,67.92
2019-01-28T01:30:12.665Z,67.38
2019-01-28T01:31:12.640Z,67.25
2019-01-28T01:32:12.672Z,67.35
2019-01-28T01:33:12.726Z,67.54
2019-01-28T01:34:13.045Z,67.54
2019-01-28T01:35:12.774Z,67.35
2019-01-28T01:36:12.794Z,67.63
2019-01-28T01:37:12.871Z,67.35
2019-01-28T01:38:12.907Z,67.83
2019-01-28T01:39:12.879Z,67.73
2019-01-28T01:40:12.962Z,67.54
2019-01-28T01:41:13.292Z,67.73
2019-01-28T01:42:12.973Z,67.92
2019-01-28T01:43:13.056Z,67.54
2019-01-28T01:44:13.040Z,67.44
2019-01-28T01:45:13.120Z,67.63
2019-01-28T01:46:13.138Z,67.54
2019-01-28T01:47:13.119Z,67.54
2019-01-28T01:48:13.461Z,67.92
2019-01-28T01:49:13.228Z,67.83
2019-01-28T01:50:13.260Z,68.02
2019-01-28T01:51:13.294Z,68.12
2019-01-28T01:52:13.315Z,67.83
2019-01-28T01:53:13.299Z,67.44
2019-01-28T01:54:13.326Z,67.63
2019-01-28T01:55:13.655Z,68.02
2019-01-28T01:56:13.384Z,68.12
2019-01-28T01:57:13.412Z,67.92
2019-01-28T01:58:13.495Z,67.83
2019-01-28T01:59:13.539Z,67.35
2019-01-28T02:00:13.527Z,67.63
2019-01-28T02:01:13.587Z,67.63
2019-01-28T02:02:13.867Z,67.83
2019-01-28T02:03:13.597Z,68.30
2019-01-28T02:04:13.626Z,67.92
2019-01-28T02:05:13.703Z,67.73
2019-01-28T02:06:13.731Z,67.63
2019-01-28T02:07:13.711Z,67.63
2019-01-28T02:08:13.741Z,67.92
2019-01-28T02:09:14.075Z,67.92
2019-01-28T02:10:13.798Z,68.21
2019-01-28T02:11:13.832Z,68.21
2019-01-28T02:12:13.915Z,67.92
2019-01-28T02:13:13.953Z,68.02
2019-01-28T02:14:13.977Z,67.54
2019-01-28T02:15:13.954Z,68.02
2019-01-28T02:16:14.281Z,67.92
2019-01-28T02:17:14.058Z,67.63
2019-01-28T02:18:14.045Z,67.63
2019-01-28T02:19:14.079Z,67.44
2019-01-28T02:20:14.101Z,67.83
2019-01-28T02:21:14.137Z,67.73
2019-01-28T02:22:14.458Z,67.44
2019-01-28T02:23:14.190Z,68.12
2019-01-28T02:24:14.217Z,68.40
2019-01-28T02:25:14.307Z,68.59
2019-01-28T02:26:14.297Z,68.21
2019-01-28T02:27:14.367Z,68.59
2019-01-28T02:28:14.645Z,68.12
2019-01-28T02:29:14.420Z,68.12
2019-01-28T02:30:14.460Z,68.12
2019-01-28T02:31:14.436Z,67.73
2019-01-28T02:32:14.510Z,67.83
2019-01-28T02:33:14.499Z,67.83
2019-01-28T02:34:14.923Z,67.92
2019-01-28T02:35:14.551Z,67.83
2019-01-28T02:36:14.575Z,68.02
2019-01-28T02:37:14.655Z,67.44
2019-01-28T02:38:14.686Z,67.25
2019-01-28T02:39:14.669Z,67.35
2019-01-28T02:40:14.750Z,68.02
2019-01-28T02:41:15.025Z,68.12
2019-01-28T02:42:14.759Z,67.63
2019-01-28T02:43:14.783Z,68.12
2019-01-28T02:44:14.820Z,67.73
2019-01-28T02:45:14.901Z,68.02
2019-01-28T02:46:14.928Z,67.83
2019-01-28T02:47:15.010Z,67.92
2019-01-28T02:48:15.283Z,67.92
2019-01-28T02:49:15.009Z,67.83
2019-01-28T02:50:14.988Z,67.54
2019-01-28T02:51:15.074Z,67.73
2019-01-28T02:52:15.101Z,68.02
2019-01-28T02:53:15.082Z,68.12
2019-01-28T02:54:15.107Z,68.02
2019-01-28T02:55:15.447Z,67.92
2019-01-28T02:56:15.171Z,67.25
2019-01-28T02:57:15.247Z,67.35
2019-01-28T02:58:15.293Z,67.54
2019-01-28T02:59:15.316Z,67.54
2019-01-28T03:00:15.288Z,67.16
2019-01-28T03:01:15.323Z,67.54
2019-01-28T03:02:15.653Z,67.54
2019-01-28T03:03:15.383Z,67.25
2019-01-28T03:04:15.460Z,67.63
2019-01-28T03:05:15.481Z,67.06
2019-01-28T03:06:15.474Z,67.16
2019-01-28T03:07:15.551Z,68.50
2019-01-28T03:08:15.585Z,68.30
2019-01-28T03:09:15.908Z,68.40
2019-01-28T03:10:15.589Z,68.02
2019-01-28T03:11:15.615Z,68.50
2019-01-28T03:12:15.691Z,68.69
2019-01-28T03:13:15.740Z,68.21
2019-01-28T03:14:15.756Z,68.02
2019-01-28T03:15:15.809Z,67.54
2019-01-28T03:16:16.066Z,67.54
2019-01-28T03:17:15.847Z,67.83
2019-01-28T03:18:15.869Z,67.63
2019-01-28T03:19:15.856Z,67.63
2019-01-28T03:20:15.882Z,68.02
2019-01-28T03:21:15.962Z,68.02
2019-01-28T03:22:15.992Z,67.92
2019-01-28T03:23:16.016Z,67.73
2019-01-28T03:24:16.050Z,67.73
2019-01-28T03:25:16.032Z,67.63
2019-01-28T03:26:16.073Z,67.44
2019-01-28T03:27:16.086Z,68.02
2019-01-28T03:28:16.132Z,67.54
2019-01-28T03:29:16.449Z,67.63
2019-01-28T03:30:16.231Z,67.44
2019-01-28T03:31:16.356Z,67.16
2019-01-28T03:32:16.291Z,67.25
2019-01-28T03:33:16.318Z,67.44
2019-01-28T03:34:16.339Z,67.25
2019-01-28T03:35:16.326Z,67.83
2019-01-28T03:36:16.654Z,67.25
2019-01-28T03:37:16.445Z,67.54
2019-01-28T03:38:16.467Z,67.16
2019-01-28T03:39:16.438Z,67.54
2019-01-28T03:40:16.481Z,67.25
2019-01-28T03:41:16.549Z,67.44
2019-01-28T03:42:16.834Z,67.35
2019-01-28T03:43:16.621Z,67.73
2019-01-28T03:44:16.595Z,67.44
2019-01-28T03:45:16.622Z,68.02
2019-01-28T03:46:16.701Z,67.63
2019-01-28T03:47:16.682Z,67.25
2019-01-28T03:48:17.008Z,67.25
2019-01-28T03:49:16.796Z,67.54
2019-01-28T03:50:16.878Z,67.63
2019-01-28T03:51:16.800Z,67.83
2019-01-28T03:52:16.835Z,68.30
2019-01-28T03:53:16.965Z,67.63
2019-01-28T03:54:17.187Z,67.25
2019-01-28T03:55:16.974Z,67.32
2019-01-28T03:56:16.948Z,67.16
2019-01-28T03:57:17.036Z,67.25
2019-01-28T03:58:17.108Z,67.35
2019-01-28T03:59:17.116Z,67.16
2019-01-28T04:00:17.132Z,67.32
2019-01-28T04:01:17.444Z,67.79
2019-01-28T04:02:17.175Z,67.25
2019-01-28T04:03:17.151Z,67.44
2019-01-28T04:04:17.184Z,67.41
2019-01-28T04:05:17.268Z,67.60
2019-01-28T04:06:17.246Z,67.32
2019-01-28T04:07:17.274Z,67.41
2019-01-28T04:08:17.602Z,67.22
2019-01-28T04:09:17.330Z,67.32
2019-01-28T04:10:17.420Z,67.22
2019-01-28T04:11:17.438Z,67.41
2019-01-28T04:12:17.466Z,67.12
2019-01-28T04:13:17.491Z,67.50
2019-01-28T04:14:17.472Z,67.60
2019-01-28T04:15:17.813Z,67.12
2019-01-28T04:16:17.534Z,67.41
2019-01-28T04:17:17.613Z,67.60
2019-01-28T04:18:17.644Z,67.50
2019-01-28T04:19:17.619Z,67.22
2019-01-28T04:20:17.651Z,67.60
2019-01-28T04:21:17.730Z,67.41
2019-01-28T04:22:18.007Z,67.32
2019-01-28T04:23:17.785Z,66.93
2019-01-28T04:24:17.822Z,67.60
2019-01-28T04:25:17.800Z,67.02
2019-01-28T04:26:17.872Z,67.60
2019-01-28T04:27:17.959Z,67.12
2019-01-28T04:28:17.938Z,67.02
2019-01-28T04:29:18.270Z,67.02
2019-01-28T04:30:17.954Z,67.60
2019-01-28T04:31:18.043Z,67.50
2019-01-28T04:32:18.058Z,67.41
2019-01-28T04:33:18.088Z,67.50
2019-01-28T04:34:18.070Z,67.32
2019-01-28T04:35:18.096Z,67.22
2019-01-28T04:36:18.420Z,67.60
2019-01-28T04:37:18.200Z,67.02
2019-01-28T04:38:18.235Z,67.50
2019-01-28T04:39:18.215Z,67.50
2019-01-28T04:40:18.294Z,67.60
2019-01-28T04:41:18.324Z,67.60
2019-01-28T04:42:18.302Z,67.60
2019-01-28T04:43:18.725Z,67.50
2019-01-28T04:44:18.352Z,67.22
2019-01-28T04:45:18.437Z,67.22
2019-01-28T04:46:18.469Z,67.22
2019-01-28T04:47:18.444Z,67.41
2019-01-28T04:48:18.476Z,67.02
2019-01-28T04:49:18.559Z,67.22
2019-01-28T04:51:18.873Z,67.50
2019-01-28T04:52:18.645Z,67.02
2019-01-28T04:53:18.672Z,66.83
2019-01-28T04:54:18.659Z,67.50
2019-01-28T04:55:18.730Z,67.60
2019-01-28T04:56:18.716Z,67.60
2019-01-28T04:57:18.793Z,67.02
2019-01-28T04:58:19.085Z,66.83
2019-01-28T04:59:18.796Z,67.41
2019-01-28T05:00:18.826Z,67.02
2019-01-28T05:01:18.909Z,66.93
2019-01-28T05:02:18.944Z,67.12
2019-01-28T05:03:18.960Z,66.93
2019-01-28T05:04:19.048Z,67.22
2019-01-28T05:05:19.280Z,67.32
2019-01-28T05:06:18.999Z,67.12
2019-01-28T05:07:19.028Z,67.22
2019-01-28T05:08:19.063Z,67.12
2019-01-28T05:09:19.155Z,67.12
2019-01-28T05:10:19.177Z,66.74
2019-01-28T05:11:19.146Z,67.22
2019-01-28T05:12:19.489Z,67.22
2019-01-28T05:13:19.263Z,67.22
2019-01-28T05:14:19.295Z,67.22
2019-01-28T05:15:19.315Z,67.50
2019-01-28T05:16:19.300Z,67.89
2019-01-28T05:17:19.371Z,67.99
2019-01-28T05:18:19.362Z,67.89
2019-01-28T05:19:19.702Z,67.50
2019-01-28T05:20:19.471Z,67.79
2019-01-28T05:21:19.494Z,67.99
2019-01-28T05:22:19.558Z,67.41
2019-01-28T05:23:19.500Z,67.60
2019-01-28T05:24:19.581Z,67.50
2019-01-28T05:25:19.563Z,67.32
2019-01-28T05:26:19.887Z,67.41
2019-01-28T05:27:19.671Z,67.32
2019-01-28T05:28:19.650Z,67.41
2019-01-28T05:29:19.730Z,67.12
2019-01-28T05:30:19.707Z,67.50
2019-01-28T05:31:19.786Z,67.22
2019-01-28T05:32:19.761Z,67.32
2019-01-28T05:33:20.091Z,67.60
2019-01-28T05:34:19.828Z,67.50
2019-01-28T05:35:19.901Z,67.41
2019-01-28T05:36:19.930Z,67.09
2019-01-28T05:37:19.915Z,67.47
2019-01-28T05:38:19.945Z,67.47
2019-01-28T05:39:19.973Z,67.47
2019-01-28T05:40:20.361Z,67.57
2019-01-28T05:41:20.080Z,67.50
2019-01-28T05:42:20.115Z,67.50
2019-01-28T05:43:20.186Z,67.22
2019-01-28T05:44:20.111Z,67.57
2019-01-28T05:45:20.199Z,67.32
2019-01-28T05:46:20.247Z,67.47
2019-01-28T05:47:20.515Z,67.66
2019-01-28T05:48:20.281Z,67.47
2019-01-28T05:49:20.316Z,67.66
2019-01-28T05:50:20.344Z,67.47
2019-01-28T05:51:20.324Z,67.18
2019-01-28T05:52:20.394Z,67.09
2019-01-28T05:53:20.378Z,67.09
2019-01-28T05:54:20.704Z,67.09
2019-01-28T05:55:20.490Z,67.18
2019-01-28T05:56:20.462Z,67.09
2019-01-28T05:57:20.548Z,67.18
2019-01-28T05:58:20.575Z,67.57
2019-01-28T05:59:20.561Z,67.28
2019-01-28T06:00:20.694Z,67.09
2019-01-28T06:01:20.914Z,67.57
2019-01-28T06:02:20.691Z,67.95
2019-01-28T06:03:20.776Z,67.95
2019-01-28T06:04:20.708Z,67.76
2019-01-28T06:05:20.786Z,67.95
2019-01-28T06:06:21.112Z,67.57
2019-01-28T06:07:21.204Z,67.38
2019-01-28T06:08:20.813Z,67.66
2019-01-28T06:09:20.906Z,67.28
2019-01-28T06:10:20.924Z,67.57
2019-01-28T06:11:20.959Z,67.28
2019-01-28T06:12:21.038Z,67.28
2019-01-28T06:13:21.277Z,67.57
2019-01-28T06:14:21.071Z,67.18
2019-01-28T06:15:21.042Z,67.38
2019-01-28T06:16:21.148Z,67.47
2019-01-28T06:17:21.143Z,67.28
2019-01-28T06:18:21.156Z,67.18
2019-01-28T06:19:21.447Z,67.18
2019-01-28T06:20:21.187Z,67.18
2019-01-28T06:21:21.246Z,67.38
2019-01-28T06:22:21.226Z,67.38
2019-01-28T06:24:21.334Z,67.47
2019-01-28T06:25:21.439Z,67.47
2019-01-28T06:26:22.346Z,67.28
2019-01-28T06:27:21.377Z,67.47
2019-01-28T06:28:21.453Z,67.09
2019-01-28T06:29:21.478Z,67.66
2019-01-28T06:30:21.461Z,67.57
2019-01-28T06:31:21.541Z,67.57
2019-01-28T06:32:21.512Z,67.38
2019-01-28T06:33:21.903Z,67.18
2019-01-28T06:34:21.627Z,67.18
2019-01-28T06:35:21.650Z,67.38
2019-01-28T06:36:21.635Z,67.57
2019-01-28T06:37:21.663Z,66.99
2019-01-28T06:38:21.697Z,67.18
2019-01-28T06:39:21.768Z,67.09
2019-01-28T06:40:21.759Z,67.28
2019-01-28T06:41:21.833Z,67.38
2019-01-28T06:42:21.821Z,67.09
2019-01-28T06:43:21.845Z,67.76
2019-01-28T06:44:22.021Z,67.38
2019-01-28T06:45:21.946Z,67.47
2019-01-28T06:46:21.982Z,67.57
2019-01-28T06:47:22.015Z,67.38
2019-01-28T06:48:22.001Z,67.18
2019-01-28T06:49:22.121Z,67.18
2019-01-28T06:50:22.096Z,67.18
2019-01-28T06:51:22.084Z,67.09
2019-01-28T06:52:22.105Z,67.28
2019-01-28T06:53:22.188Z,67.38
2019-01-28T06:54:22.215Z,67.18
2019-01-28T06:55:22.348Z,67.57
2019-01-28T06:56:22.267Z,67.76
2019-01-28T06:57:22.297Z,67.95
2019-01-28T06:58:22.274Z,67.85
2019-01-28T06:59:22.352Z,68.33
2019-01-28T07:00:22.388Z,67.95
2019-01-28T07:01:22.413Z,67.95
2019-01-28T07:02:22.395Z,67.76
2019-01-28T07:03:22.426Z,68.14
2019-01-28T07:04:22.747Z,68.14
2019-01-28T07:05:22.480Z,68.05
2019-01-28T07:06:22.563Z,67.95
2019-01-28T07:07:22.536Z,67.85
2019-01-28T07:08:22.565Z,67.76
2019-01-28T07:09:22.649Z,67.95
2019-01-28T07:10:22.624Z,67.47
2019-01-28T07:11:22.878Z,67.57
2019-01-28T07:12:22.686Z,67.38
2019-01-28T07:13:22.711Z,67.66
2019-01-28T07:14:22.746Z,67.47
2019-01-28T07:16:22.861Z,67.38
2019-01-28T07:17:23.127Z,67.47
2019-01-28T07:18:22.864Z,67.28
2019-01-28T07:19:22.961Z,67.38
2019-01-28T07:20:22.918Z,67.47
2019-01-28T07:21:23.005Z,67.57
2019-01-28T07:22:23.023Z,67.47
2019-01-28T07:23:23.002Z,67.18
2019-01-28T07:24:23.086Z,67.28
2019-01-28T07:25:23.193Z,67.28
2019-01-28T07:26:23.148Z,67.28
2019-01-28T07:27:23.174Z,67.18
2019-01-28T07:28:23.154Z,67.47
2019-01-28T07:29:23.350Z,67.57
2019-01-28T07:30:23.565Z,67.38
2019-01-28T07:31:23.296Z,67.57
2019-01-28T07:32:23.275Z,67.38
2019-01-28T07:33:23.376Z,67.18
2019-01-28T07:34:23.375Z,67.28
2019-01-28T07:35:23.362Z,67.28
2019-01-28T07:36:23.433Z,67.28
2019-01-28T07:37:23.467Z,67.38
2019-01-28T07:38:23.489Z,67.57
2019-01-28T07:39:23.475Z,67.47
2019-01-28T07:40:23.508Z,67.38
2019-01-28T07:41:23.528Z,66.80
2019-01-28T07:42:23.608Z,66.99
2019-01-28T07:43:23.648Z,67.09
2019-01-28T07:44:23.624Z,67.09
2019-01-28T07:45:23.702Z,67.47
2019-01-28T07:46:23.734Z,67.18
2019-01-28T07:48:23.738Z,67.66
2019-01-28T07:49:23.815Z,66.89
2019-01-28T07:50:23.842Z,66.99
2019-01-28T07:51:23.877Z,67.57
2019-01-28T07:52:23.856Z,67.38
2019-01-28T07:53:23.932Z,67.47
2019-01-28T07:54:23.911Z,67.18
2019-01-28T07:55:24.252Z,67.28
2019-01-28T07:56:24.018Z,67.28
2019-01-28T07:57:24.062Z,67.57
2019-01-28T07:58:24.022Z,66.99
2019-01-28T07:59:24.058Z,67.38
2019-01-28T08:00:24.150Z,67.38
2019-01-28T08:01:24.417Z,67.47
2019-01-28T08:02:24.144Z,67.47
2019-01-28T08:03:24.183Z,67.57
2019-01-28T08:04:24.205Z,67.47
2019-01-28T08:05:24.534Z,67.38
2019-01-28T08:06:24.264Z,67.38
2019-01-28T08:07:24.335Z,67.47
2019-01-28T08:08:24.318Z,66.99
2019-01-28T08:09:24.400Z,66.89
2019-01-28T08:10:24.428Z,67.18
2019-01-28T08:11:24.457Z,67.09
2019-01-28T08:13:24.515Z,66.71
2019-01-28T08:14:24.800Z,66.80
2019-01-28T08:15:24.591Z,67.09
2019-01-28T08:16:24.562Z,66.99
2019-01-28T08:17:24.688Z,66.99
2019-01-28T08:18:24.665Z,66.99
2019-01-28T08:19:24.635Z,66.51
2019-01-28T08:20:24.720Z,66.71
2019-01-28T08:21:25.051Z,66.89
2019-01-28T08:22:25.022Z,66.71
2019-01-28T08:23:24.807Z,68.24
2019-01-28T08:24:24.875Z,69.20
2019-01-28T08:25:24.876Z,69.01
2019-01-28T08:26:24.892Z,68.91
2019-01-28T08:27:25.174Z,68.91
2019-01-28T08:28:25.198Z,69.10
2019-01-28T08:29:24.979Z,69.10
2019-01-28T08:30:25.007Z,69.01
2019-01-28T08:31:25.041Z,68.72
2019-01-28T08:32:25.066Z,68.81
2019-01-28T08:33:25.100Z,68.91
2019-01-28T08:34:25.130Z,68.33
2019-01-28T08:35:25.422Z,68.81
2019-01-28T08:36:25.229Z,68.91
2019-01-28T08:37:25.219Z,68.91
2019-01-28T08:38:25.242Z,68.33
2019-01-28T08:39:25.278Z,68.52
2019-01-28T08:40:25.261Z,68.43
2019-01-28T08:42:25.368Z,68.72
2019-01-28T08:43:25.338Z,69.29
2019-01-28T08:44:25.365Z,69.58
2019-01-28T08:45:25.447Z,69.58
2019-01-28T08:46:30.159Z,69.29
2019-01-28T08:47:25.515Z,69.58
2019-01-28T08:48:25.483Z,69.48
2019-01-28T08:49:25.820Z,69.58
2019-01-28T08:50:26.077Z,69.39
2019-01-28T08:51:25.667Z,69.58
2019-01-28T08:52:25.598Z,69.48
2019-01-28T08:53:25.688Z,69.68
2019-01-28T08:54:25.719Z,69.77
2019-01-28T08:55:25.693Z,69.68
2019-01-28T08:56:26.032Z,69.77
2019-01-28T08:57:26.758Z,69.48
2019-01-28T08:58:26.470Z,69.58
2019-01-28T08:59:25.849Z,69.58
2019-01-28T09:00:25.829Z,69.77
2019-01-28T09:01:25.916Z,69.77
2019-01-28T09:02:25.891Z,69.58
2019-01-28T09:03:25.990Z,69.48
2019-01-28T09:04:25.976Z,69.58
2019-01-28T09:05:26.032Z,69.48
2019-01-28T09:06:26.057Z,69.39
2019-01-28T09:07:26.083Z,69.77
2019-01-28T09:08:26.069Z,69.87
2019-01-28T09:09:26.399Z,69.58
2019-01-28T09:10:26.123Z,69.39
2019-01-28T09:11:26.171Z,69.39
2019-01-28T09:12:26.235Z,69.68
2019-01-28T09:13:26.263Z,69.77
2019-01-28T09:14:26.292Z,69.77
2019-01-28T09:15:26.572Z,69.68
2019-01-28T09:16:26.487Z,69.77
2019-01-28T09:17:26.335Z,69.48
2019-01-28T09:18:26.740Z,69.58
2019-01-28T09:19:26.387Z,69.39
2019-01-28T09:20:26.425Z,69.58
2019-01-28T09:21:26.769Z,69.39
2019-01-28T09:22:26.521Z,69.68
2019-01-28T09:23:26.555Z,69.48
2019-01-28T09:24:26.582Z,69.39
2019-01-28T09:25:26.610Z,69.87
2019-01-28T09:26:26.693Z,70.15
2019-01-28T09:27:26.921Z,70.06
2019-01-28T09:28:26.699Z,70.25
2019-01-28T09:29:26.742Z,69.87
2019-01-28T09:30:26.884Z,70.06
2019-01-28T09:31:26.746Z,69.58
2019-01-28T09:32:26.816Z,69.77
2019-01-28T09:33:26.904Z,69.58
2019-01-28T09:34:27.129Z,69.87
2019-01-28T09:35:26.850Z,69.96
2019-01-28T09:36:26.883Z,69.96
2019-01-28T09:37:27.055Z,69.77
2019-01-28T09:38:26.951Z,70.06
2019-01-28T09:39:27.032Z,69.77
2019-01-28T09:40:27.003Z,70.06
2019-01-28T09:42:27.056Z,70.06
2019-01-28T09:43:27.395Z,69.87
2019-01-28T09:44:27.164Z,69.48
2019-01-28T09:45:27.198Z,69.68
2019-01-28T09:46:27.178Z,69.87
2019-01-28T09:47:27.513Z,69.96
2019-01-28T09:48:34.113Z,69.58
2019-01-28T09:49:27.267Z,69.87
2019-01-28T09:50:27.347Z,69.96
2019-01-28T09:51:27.322Z,69.68
2019-01-28T09:52:27.409Z,69.90
2019-01-28T09:53:29.394Z,69.96
2019-01-28T09:54:27.713Z,69.81
2019-01-28T09:55:27.499Z,69.48
2019-01-28T09:56:27.524Z,69.42
2019-01-28T09:57:27.548Z,69.62
2019-01-28T09:58:27.526Z,69.81
2019-01-28T09:59:27.684Z,69.48
2019-01-28T10:00:27.634Z,69.42
2019-01-28T10:01:28.029Z,69.81
2019-01-28T10:02:27.659Z,69.71
2019-01-28T10:03:27.732Z,69.90
2019-01-28T10:04:27.733Z,69.62
2019-01-28T10:06:27.812Z,69.71
2019-01-28T10:07:27.842Z,69.52
2019-01-28T10:08:27.828Z,69.81
2019-01-28T10:09:27.908Z,69.33
2019-01-28T10:11:27.955Z,69.42
2019-01-28T10:12:28.068Z,69.23
2019-01-28T10:13:28.061Z,69.04
2019-01-28T10:14:28.450Z,68.95
2019-01-28T10:15:28.962Z,68.85
2019-01-28T10:16:28.053Z,69.04
2019-01-28T10:18:28.117Z,68.75
2019-01-28T10:19:28.208Z,69.04
2019-01-28T10:20:28.533Z,69.23
2019-01-28T10:21:28.259Z,68.85
2019-01-28T10:22:28.297Z,68.85
2019-01-28T10:23:28.320Z,69.33
2019-01-28T10:24:28.631Z,69.04
2019-01-28T10:25:28.603Z,69.04
2019-01-28T10:26:28.767Z,68.56
2019-01-28T10:27:28.556Z,68.95
2019-01-28T10:28:28.612Z,68.95
2019-01-28T10:29:28.496Z,69.04
2019-01-28T10:30:28.554Z,68.56
2019-01-28T10:31:28.611Z,68.27
2019-01-28T10:32:35.793Z,68.46
2019-01-28T10:33:28.616Z,68.56
2019-01-28T10:34:28.661Z,68.37
2019-01-28T10:35:28.708Z,68.46
2019-01-28T10:36:28.668Z,68.56
2019-01-28T10:37:28.741Z,68.85
2019-01-28T10:38:29.198Z,68.46
2019-01-28T10:39:28.736Z,68.56
2019-01-28T10:40:28.814Z,67.79
2019-01-28T10:41:28.839Z,67.99
2019-01-28T10:42:28.828Z,68.46
2019-01-28T10:43:28.867Z,68.46
2019-01-28T10:44:28.883Z,68.37
2019-01-28T10:45:28.907Z,68.46
2019-01-28T10:46:28.992Z,68.46
2019-01-28T10:47:28.966Z,68.46
2019-01-28T10:48:29.047Z,68.18
2019-01-28T10:49:29.074Z,68.18
2019-01-28T10:50:29.058Z,67.89
2019-01-28T10:51:29.449Z,67.99
2019-01-28T10:52:29.142Z,67.99
2019-01-28T10:53:29.192Z,68.37
2019-01-28T10:54:29.171Z,67.89
2019-01-28T10:55:29.267Z,68.08
2019-01-28T10:56:29.287Z,67.89
2019-01-28T10:57:29.570Z,68.37
2019-01-28T10:58:29.343Z,67.89
2019-01-28T10:59:29.394Z,67.89
2019-01-28T11:00:29.380Z,67.69
2019-01-28T11:01:29.428Z,67.99
2019-01-28T11:02:29.456Z,67.99
2019-01-28T11:03:29.449Z,67.89
2019-01-28T11:04:29.566Z,67.89
2019-01-28T11:05:29.647Z,68.08
2019-01-28T11:06:29.656Z,67.79
2019-01-28T11:07:29.607Z,68.08
2019-01-28T11:08:29.596Z,67.89
2019-01-28T11:09:29.974Z,67.79
2019-01-28T11:10:29.714Z,67.99
2019-01-28T11:11:29.736Z,67.60
2019-01-28T11:12:29.808Z,67.89
2019-01-28T11:13:29.800Z,67.60
2019-01-28T11:14:29.991Z,67.99
2019-01-28T11:15:29.863Z,67.50
2019-01-28T11:17:30.257Z,67.22
2019-01-28T11:18:29.962Z,67.02
2019-01-28T11:19:29.926Z,67.32
2019-01-28T11:20:30.014Z,67.32
2019-01-28T11:21:30.036Z,67.22
2019-01-28T11:22:30.138Z,67.32
2019-01-28T11:24:30.090Z,67.22
2019-01-28T11:25:30.523Z,67.32
2019-01-28T11:26:30.209Z,67.60
2019-01-28T11:27:30.372Z,67.32
2019-01-28T11:28:30.281Z,67.12
2019-01-28T11:30:30.474Z,67.22
2019-01-28T11:31:30.348Z,66.83
2019-01-28T11:32:30.395Z,67.02
2019-01-28T11:33:30.567Z,67.22
2019-01-28T11:34:30.521Z,67.12
2019-01-28T11:35:30.395Z,66.74
2019-01-28T11:36:30.560Z,67.02
2019-01-28T11:37:30.676Z,67.12
2019-01-28T11:38:30.699Z,66.64
2019-01-28T11:40:30.540Z,66.83
2019-01-28T11:41:30.743Z,66.74
2019-01-28T11:42:30.586Z,66.83
2019-01-28T11:43:31.019Z,67.12
2019-01-28T11:44:30.649Z,66.83
2019-01-28T11:45:30.789Z,66.93
2019-01-28T11:46:30.705Z,66.93
2019-01-28T11:47:30.740Z,66.83
2019-01-28T11:48:32.678Z,67.12
2019-01-28T11:49:30.957Z,66.64
2019-01-28T11:50:30.834Z,66.74
2019-01-28T11:51:30.853Z,66.93
2019-01-28T11:52:30.879Z,66.83
2019-01-28T11:53:30.961Z,66.64
2019-01-28T11:54:31.014Z,66.74
2019-01-28T11:55:30.977Z,66.74
2019-01-28T11:56:31.011Z,66.64
2019-01-28T11:57:31.088Z,66.83
2019-01-28T11:58:31.059Z,66.93
2019-01-28T11:59:31.141Z,67.12
2019-01-28T12:00:31.124Z,66.93
2019-01-28T12:01:31.199Z,66.83
2019-01-28T12:02:34.337Z,66.93
2019-01-28T12:04:31.288Z,66.35
2019-01-28T12:05:31.322Z,66.64
2019-01-28T12:06:31.354Z,66.45
2019-01-28T12:08:31.383Z,66.26
2019-01-28T12:09:31.745Z,66.45
2019-01-28T12:10:31.750Z,66.55
2019-01-28T12:11:31.602Z,66.55
2019-01-28T12:12:31.557Z,66.26
2019-01-28T12:13:31.659Z,66.35
2019-01-28T12:14:31.582Z,66.45
2019-01-28T12:15:31.877Z,66.64
2019-01-28T12:16:31.650Z,66.45
2019-01-28T12:17:31.677Z,66.45
2019-01-28T12:18:31.660Z,65.88
2019-01-28T12:19:31.758Z,66.45
2019-01-28T12:21:31.798Z,66.55
2019-01-28T12:22:31.834Z,66.45
2019-01-28T12:23:34.532Z,66.26
2019-01-28T12:25:31.910Z,66.45
2019-01-28T12:26:31.941Z,66.45
2019-01-28T12:27:31.960Z,66.35
2019-01-28T12:28:32.252Z,66.55
2019-01-28T12:29:32.027Z,66.64
2019-01-28T12:31:32.187Z,66.55
2019-01-28T12:33:32.145Z,66.16
2019-01-28T12:34:32.170Z,66.26
2019-01-28T12:35:32.201Z,66.26
2019-01-28T12:36:32.180Z,66.45
2019-01-28T12:37:32.259Z,66.45
2019-01-28T12:38:32.304Z,66.55
2019-01-28T12:39:32.284Z,66.16
2019-01-28T12:42:32.439Z,66.16
2019-01-28T12:43:32.680Z,66.06
2019-01-28T12:45:32.559Z,65.78
2019-01-28T12:46:32.589Z,65.97
2019-01-28T12:47:32.622Z,66.26
2019-01-28T12:48:32.669Z,65.78
2019-01-28T12:49:32.719Z,65.59
2019-01-28T12:52:32.912Z,65.78
2019-01-28T12:53:32.978Z,65.78
2019-01-28T12:54:32.760Z,65.59
2019-01-28T12:55:34.038Z,66.16
2019-01-28T12:56:32.853Z,65.59
2019-01-28T12:57:32.807Z,65.88
2019-01-28T12:58:32.892Z,65.78
2019-01-28T12:59:32.864Z,65.68
2019-01-28T13:00:32.887Z,65.49
2019-01-28T13:01:32.965Z,65.68
2019-01-28T13:03:33.022Z,65.68
2019-01-28T13:04:33.308Z,65.68
2019-01-28T13:05:33.088Z,65.88
2019-01-28T13:06:33.112Z,65.39
2019-01-28T13:07:33.094Z,65.49
2019-01-28T13:08:33.177Z,65.20
2019-01-28T13:09:33.207Z,65.49
2019-01-28T13:10:33.187Z,65.11
2019-01-28T13:11:33.210Z,65.20
2019-01-28T13:12:33.296Z,65.30
2019-01-28T13:13:33.267Z,65.39
2019-01-28T13:14:34.193Z,65.49
2019-01-28T13:15:33.636Z,65.59
2019-01-28T13:16:33.462Z,65.20
2019-01-28T13:17:33.809Z,65.49
2019-01-28T13:18:33.418Z,65.39